Time;durP1;ratioP1;P1;durP2;ratioP2;P2;SDS_P1;SDS_P2;PMS_P1;PMS_P2;Temp;Humidity;BMP_temperature;BMP_pressure;BME280_temperature;BME280_humidity;BME280_pressure;Samples;Min_cycle;Max_cycle;Signal;HPM_P1;HPM_P2
2024/04/16 00:01:51;;;;;;;0.10;0.10;;;;;;;;;;7393706;19;20210;-48
2024/04/16 00:04:17;;;;;;;0.10;0.10;;;;;;;;;;7392434;19;20145;-47
2024/04/16 00:06:43;;;;;;;0.10;0.10;;;;;;;;;;7392543;19;20142;-47
2024/04/16 00:09:09;;;;;;;0.10;0.10;;;;;;;;;;7393187;19;20134;-47
2024/04/16 00:11:35;;;;;;;0.10;0.10;;;;;;;;;;7393361;19;20142;-47
2024/04/16 00:14:01;;;;;;;0.10;0.10;;;;;;;;;;7392159;19;20593;-47
2024/04/16 00:16:27;;;;;;;0.10;0.10;;;;;;;;;;7393498;19;20126;-48
2024/04/16 00:18:53;;;;;;;0.10;0.10;;;;;;;;;;7393238;19;20130;-46
2024/04/16 00:21:20;;;;;;;0.20;0.20;;;;;;;;;;7397637;19;20138;-47
2024/04/16 00:23:46;;;;;;;0.20;0.20;;;;;;;;;;7398434;19;20192;-47
2024/04/16 00:26:12;;;;;;;0.20;0.20;;;;;;;;;;7400425;19;20629;-47
2024/04/16 00:28:38;;;;;;;0.20;0.20;;;;;;;;;;7400099;19;20130;-47
2024/04/16 00:31:04;;;;;;;0.17;0.17;;;;;;;;;;7400174;19;20126;-47
2024/04/16 00:33:30;;;;;;;0.10;0.10;;;;;;;;;;7399695;19;20130;-48
2024/04/16 00:35:56;;;;;;;0.10;0.10;;;;;;;;;;7400457;19;20126;-48
2024/04/16 00:38:22;;;;;;;0.10;0.10;;;;;;;;;;7399943;19;20153;-48
2024/04/16 00:40:51;;;;;;;0.20;0.20;;;;;;;;;;7399874;19;20138;-48
2024/04/16 00:43:18;;;;;;;0.10;0.10;;;;;;;;;;7400167;19;20146;-48
2024/04/16 00:45:48;;;;;;;0.20;0.20;;;;;;;;;;7400298;19;20152;-48
2024/04/16 00:48:15;;;;;;;0.10;0.10;;;;;;;;;;7399872;19;20489;-47
2024/04/16 00:50:41;;;;;;;0.10;0.10;;;;;;;;;;7398015;19;20630;-48
2024/04/16 00:53:08;;;;;;;0.10;0.10;;;;;;;;;;7399531;19;20160;-47
2024/04/16 00:55:34;;;;;;;0.20;0.20;;;;;;;;;;7397021;19;20130;-47
2024/04/16 00:58:00;;;;;;;0.20;0.20;;;;;;;;;;7399365;19;20152;-47
2024/04/16 01:00:26;;;;;;;0.10;0.10;;;;;;;;;;7399490;19;20516;-47
2024/04/16 01:02:52;;;;;;;0.13;0.13;;;;;;;;;;7399094;19;20130;-47
2024/04/16 01:05:18;;;;;;;0.10;0.10;;;;;;;;;;7399259;19;20134;-48
2024/04/16 01:07:44;;;;;;;0.20;0.20;;;;;;;;;;7399362;19;20158;-47
2024/04/16 01:10:11;;;;;;;0.20;0.20;;;;;;;;;;7398673;19;20145;-47
2024/04/16 01:12:41;;;;;;;0.20;0.20;;;;;;;;;;7398877;19;20130;-48
2024/04/16 01:15:07;;;;;;;0.10;0.10;;;;;;;;;;7396792;19;20138;-48
2024/04/16 01:17:33;;;;;;;0.10;0.10;;;;;;;;;;7397384;19;20145;-48
2024/04/16 01:20:00;;;;;;;0.20;0.20;;;;;;;;;;7399007;19;20202;-48
2024/04/16 01:22:26;;;;;;;0.10;0.10;;;;;;;;;;7397770;19;20157;-47
2024/04/16 01:24:51;;;;;;;0.10;0.10;;;;;;;;;;7398693;19;20130;-48
2024/04/16 01:27:21;;;;;;;0.10;0.10;;;;;;;;;;7398420;19;20597;-48
2024/04/16 01:29:47;;;;;;;0.10;0.10;;;;;;;;;;7398298;19;20137;-47
2024/04/16 01:32:14;;;;;;;0.10;0.10;;;;;;;;;;7397528;19;20134;-48
2024/04/16 01:34:40;;;;;;;0.00;0.00;;;;;;;;;;7396840;19;20653;-48
2024/04/16 01:37:06;;;;;;;0.10;0.10;;;;;;;;;;7398030;19;20134;-48
2024/04/16 01:39:32;;;;;;;0.10;0.10;;;;;;;;;;7398309;19;20201;-48
2024/04/16 01:41:58;;;;;;;0.10;0.10;;;;;;;;;;7398303;19;20138;-48
2024/04/16 01:44:24;;;;;;;0.20;0.20;;;;;;;;;;7397471;19;20151;-48
2024/04/16 01:46:50;;;;;;;0.17;0.17;;;;;;;;;;7397752;19;20166;-48
2024/04/16 01:49:17;;;;;;;0.10;0.10;;;;;;;;;;7397571;19;20130;-48
2024/04/16 01:51:44;;;;;;;0.10;0.10;;;;;;;;;;7397345;19;20686;-48
2024/04/16 01:54:10;;;;;;;0.10;0.10;;;;;;;;;;7395864;19;20165;-48
2024/04/16 01:56:36;;;;;;;0.10;0.10;;;;;;;;;;7397294;19;20139;-48
2024/04/16 01:59:02;;;;;;;0.20;0.20;;;;;;;;;;7397057;19;20130;-49
2024/04/16 02:01:28;;;;;;;0.10;0.10;;;;;;;;;;7397135;19;20613;-48
2024/04/16 02:03:54;;;;;;;0.10;0.10;;;;;;;;;;7397221;19;20157;-48
2024/04/16 02:06:20;;;;;;;0.20;0.20;;;;;;;;;;7397554;19;20146;-49
2024/04/16 02:08:46;;;;;;;0.20;0.20;;;;;;;;;;7397258;19;20559;-49
2024/04/16 02:11:12;;;;;;;0.20;0.20;;;;;;;;;;7396785;19;20127;-49
2024/04/16 02:13:38;;;;;;;0.20;0.20;;;;;;;;;;7396472;19;20130;-48
2024/04/16 02:16:04;;;;;;;0.10;0.10;;;;;;;;;;7396466;19;20138;-48
2024/04/16 02:18:31;;;;;;;0.10;0.10;;;;;;;;;;7396930;19;20145;-48
2024/04/16 02:20:57;;;;;;;0.20;0.20;;;;;;;;;;7396993;19;20147;-48
2024/04/16 02:23:23;;;;;;;0.10;0.10;;;;;;;;;;7395539;19;20181;-48
2024/04/16 02:25:52;;;;;;;0.10;0.10;;;;;;;;;;7396216;19;20656;-48
2024/04/16 02:28:18;;;;;;;0.10;0.10;;;;;;;;;;7396289;19;20477;-48
2024/04/16 02:30:44;;;;;;;0.10;0.10;;;;;;;;;;7395812;19;20133;-48
2024/04/16 02:33:14;;;;;;;0.10;0.10;;;;;;;;;;7396185;19;20130;-47
2024/04/16 02:35:40;;;;;;;0.10;0.10;;;;;;;;;;7394645;19;20149;-48
2024/04/16 02:38:06;;;;;;;0.10;0.10;;;;;;;;;;7395881;19;20133;-47
2024/04/16 02:40:32;;;;;;;0.10;0.10;;;;;;;;;;7395757;19;20133;-48
2024/04/16 02:42:58;;;;;;;0.10;0.10;;;;;;;;;;7393980;19;20565;-48
2024/04/16 02:45:24;;;;;;;0.20;0.20;;;;;;;;;;7395204;19;20141;-49
2024/04/16 02:47:50;;;;;;;0.10;0.10;;;;;;;;;;7395642;19;20137;-48
2024/04/16 02:50:16;;;;;;;0.10;0.10;;;;;;;;;;7395636;19;20603;-48
2024/04/16 02:52:42;;;;;;;0.10;0.10;;;;;;;;;;7395314;19;20150;-48
2024/04/16 02:55:08;;;;;;;0.10;0.10;;;;;;;;;;7394221;19;20138;-48
2024/04/16 02:57:34;;;;;;;0.10;0.10;;;;;;;;;;7395876;19;20138;-49
2024/04/16 03:00:01;;;;;;;0.10;0.10;;;;;;;;;;7395142;19;20633;-49
2024/04/16 03:02:27;;;;;;;0.10;0.10;;;;;;;;;;7395316;19;20134;-48
2024/04/16 03:04:53;;;;;;;0.10;0.10;;;;;;;;;;7394019;19;20166;-48
2024/04/16 03:07:19;;;;;;;0.10;0.10;;;;;;;;;;7394026;19;20201;-48
2024/04/16 03:09:45;;;;;;;0.10;0.10;;;;;;;;;;7395083;19;20141;-48
2024/04/16 03:12:11;;;;;;;0.10;0.10;;;;;;;;;;7395333;19;20237;-48
2024/04/16 03:14:37;;;;;;;0.10;0.10;;;;;;;;;;7393860;19;20126;-48
2024/04/16 03:17:04;;;;;;;0.10;0.10;;;;;;;;;;7394880;19;20258;-49
2024/04/16 03:19:30;;;;;;;0.10;0.10;;;;;;;;;;7395109;19;20126;-49
2024/04/16 03:21:56;;;;;;;0.20;0.20;;;;;;;;;;7394760;19;20126;-48
2024/04/16 03:24:22;;;;;;;0.10;0.10;;;;;;;;;;7393158;19;20181;-48
2024/04/16 03:26:48;;;;;;;0.07;0.07;;;;;;;;;;7394707;19;20142;-48
2024/04/16 03:29:14;;;;;;;0.10;0.10;;;;;;;;;;7392744;19;20146;-48
2024/04/16 03:31:40;;;;;;;0.10;0.10;;;;;;;;;;7393205;19;20154;-48
2024/04/16 03:34:06;;;;;;;0.10;0.10;;;;;;;;;;7393883;19;20487;-48
2024/04/16 03:36:32;;;;;;;0.20;0.20;;;;;;;;;;7394398;19;20139;-49
2024/04/16 03:38:58;;;;;;;0.20;0.20;;;;;;;;;;7394241;19;20137;-49
2024/04/16 03:41:24;;;;;;;0.13;0.13;;;;;;;;;;7394115;19;20127;-47
2024/04/16 03:43:51;;;;;;;0.10;0.10;;;;;;;;;;7394206;19;20158;-48
2024/04/16 03:46:17;;;;;;;0.13;0.13;;;;;;;;;;7393941;19;20138;-47
2024/04/16 03:48:43;;;;;;;0.10;0.10;;;;;;;;;;7393821;19;20250;-49
2024/04/16 03:51:09;;;;;;;0.10;0.10;;;;;;;;;;7393807;19;20134;-49
2024/04/16 03:53:35;;;;;;;0.10;0.10;;;;;;;;;;7393500;19;20615;-49
2024/04/16 03:56:01;;;;;;;0.20;0.20;;;;;;;;;;7398589;19;20158;-49
2024/04/16 03:58:27;;;;;;;0.10;0.10;;;;;;;;;;7401172;19;20142;-49
2024/04/16 04:01:00;;;;;;;0.10;0.10;;;;;;;;;;7400947;19;20158;-49
2024/04/16 04:03:26;;;;;;;0.10;0.10;;;;;;;;;;7401428;19;20134;-48
2024/04/16 04:05:52;;;;;;;0.10;0.10;;;;;;;;;;7401127;19;20130;-48
2024/04/16 04:08:18;;;;;;;0.10;0.10;;;;;;;;;;7401312;19;20153;-48
2024/04/16 04:10:45;;;;;;;0.20;0.20;;;;;;;;;;7400396;19;20656;-49
2024/04/16 04:13:11;;;;;;;0.10;0.10;;;;;;;;;;7399804;19;20142;-48
2024/04/16 04:15:37;;;;;;;0.10;0.10;;;;;;;;;;7398473;19;20543;-48
2024/04/16 04:18:04;;;;;;;0.10;0.10;;;;;;;;;;7400970;19;20142;-48
2024/04/16 04:20:30;;;;;;;0.10;0.10;;;;;;;;;;7400411;19;20130;-48
2024/04/16 04:22:56;;;;;;;0.10;0.10;;;;;;;;;;7398987;19;20185;-48
2024/04/16 04:25:22;;;;;;;0.10;0.10;;;;;;;;;;7400143;19;20133;-49
2024/04/16 04:27:48;;;;;;;0.10;0.10;;;;;;;;;;7399964;19;20130;-49
2024/04/16 04:30:14;;;;;;;0.10;0.10;;;;;;;;;;7400288;19;20596;-49
2024/04/16 04:32:40;;;;;;;0.10;0.10;;;;;;;;;;7400022;19;20144;-49
2024/04/16 04:35:09;;;;;;;0.10;0.10;;;;;;;;;;7398436;19;20146;-48
2024/04/16 04:37:35;;;;;;;0.10;0.10;;;;;;;;;;7399576;19;20133;-49
2024/04/16 04:40:01;;;;;;;0.10;0.10;;;;;;;;;;7400457;19;20145;-48
2024/04/16 04:42:27;;;;;;;0.17;0.17;;;;;;;;;;7400020;19;20138;-48
2024/04/16 04:44:53;;;;;;;0.10;0.10;;;;;;;;;;7399823;19;20134;-48
2024/04/16 04:47:20;;;;;;;0.10;0.10;;;;;;;;;;7397842;19;20537;-49
2024/04/16 04:49:46;;;;;;;0.17;0.17;;;;;;;;;;7399573;19;20134;-49
2024/04/16 04:52:12;;;;;;;0.10;0.10;;;;;;;;;;7398951;19;20126;-49
2024/04/16 04:54:38;;;;;;;0.10;0.10;;;;;;;;;;7398379;19;20126;-49
2024/04/16 04:57:04;;;;;;;0.10;0.10;;;;;;;;;;7399364;19;20141;-49
2024/04/16 04:59:30;;;;;;;0.10;0.10;;;;;;;;;;7399729;19;20138;-47
2024/04/16 05:01:56;;;;;;;0.10;0.10;;;;;;;;;;7399036;19;20167;-49
2024/04/16 05:04:22;;;;;;;0.10;0.10;;;;;;;;;;7399065;19;20150;-49
2024/04/16 05:06:48;;;;;;;0.10;0.10;;;;;;;;;;7397940;19;20149;-48
2024/04/16 05:09:14;;;;;;;0.10;0.10;;;;;;;;;;7398977;19;20130;-49
2024/04/16 05:11:40;;;;;;;0.10;0.10;;;;;;;;;;7397892;19;20482;-48
2024/04/16 05:14:11;;;;;;;0.10;0.10;;;;;;;;;;7397703;19;20160;-48
2024/04/16 05:16:37;;;;;;;0.10;0.10;;;;;;;;;;7397436;19;20142;-48
2024/04/16 05:19:03;;;;;;;0.10;0.10;;;;;;;;;;7397962;19;20149;-48
2024/04/16 05:21:30;;;;;;;0.10;0.10;;;;;;;;;;7397796;19;20197;-49
2024/04/16 05:23:56;;;;;;;0.10;0.10;;;;;;;;;;7396222;19;20201;-49
2024/04/16 05:26:22;;;;;;;0.20;0.20;;;;;;;;;;7397336;19;20146;-49
2024/04/16 05:28:49;;;;;;;0.20;0.20;;;;;;;;;;7398450;19;20198;-49
2024/04/16 05:31:15;;;;;;;0.20;0.20;;;;;;;;;;7397510;19;20494;-50
2024/04/16 05:33:41;;;;;;;0.10;0.10;;;;;;;;;;7397414;19;20126;-48
2024/04/16 05:36:07;;;;;;;0.10;0.10;;;;;;;;;;7396972;19;20141;-48
2024/04/16 05:38:34;;;;;;;0.10;0.10;;;;;;;;;;7397518;19;20157;-48
2024/04/16 05:41:00;;;;;;;0.10;0.10;;;;;;;;;;7397070;19;20494;-48
2024/04/16 05:43:26;;;;;;;0.10;0.10;;;;;;;;;;7397612;19;20154;-49
2024/04/16 05:45:53;;;;;;;0.10;0.10;;;;;;;;;;7397361;19;20158;-48
2024/04/16 05:48:19;;;;;;;0.10;0.10;;;;;;;;;;7397486;19;20145;-50
2024/04/16 05:50:45;;;;;;;0.10;0.10;;;;;;;;;;7396165;19;20486;-50
2024/04/16 05:53:11;;;;;;;0.10;0.10;;;;;;;;;;7396761;19;20158;-49
2024/04/16 05:55:37;;;;;;;0.20;0.20;;;;;;;;;;7395186;19;20488;-48
2024/04/16 05:58:03;;;;;;;0.10;0.10;;;;;;;;;;7396843;19;20141;-48
2024/04/16 06:00:29;;;;;;;0.10;0.10;;;;;;;;;;7396984;19;20252;-50
2024/04/16 06:02:55;;;;;;;0.13;0.13;;;;;;;;;;7395068;19;20133;-49
2024/04/16 06:05:21;;;;;;;0.10;0.10;;;;;;;;;;7395347;19;20145;-48
2024/04/16 06:07:47;;;;;;;0.10;0.10;;;;;;;;;;7395501;19;20126;-49
2024/04/16 06:10:13;;;;;;;0.00;0.00;;;;;;;;;;7394117;19;20137;-49
2024/04/16 06:12:39;;;;;;;0.20;0.20;;;;;;;;;;7395893;19;20138;-49
2024/04/16 06:15:05;;;;;;;0.17;0.17;;;;;;;;;;7393278;19;20212;-49
2024/04/16 06:17:31;;;;;;;0.20;0.20;;;;;;;;;;7394273;19;20605;-49
2024/04/16 06:19:57;;;;;;;0.10;0.10;;;;;;;;;;7394485;19;20219;-48
2024/04/16 06:22:23;;;;;;;0.10;0.10;;;;;;;;;;7394763;19;20149;-49
2024/04/16 06:24:49;;;;;;;0.10;0.10;;;;;;;;;;7394353;19;20571;-49
2024/04/16 06:27:15;;;;;;;0.13;0.13;;;;;;;;;;7395606;19;20214;-48
2024/04/16 06:29:41;;;;;;;0.10;0.10;;;;;;;;;;7395670;19;20170;-49
2024/04/16 06:32:07;;;;;;;0.10;0.10;;;;;;;;;;7394335;19;20130;-49
2024/04/16 06:34:33;;;;;;;0.10;0.10;;;;;;;;;;7393807;19;20266;-50
2024/04/16 06:36:59;;;;;;;0.10;0.10;;;;;;;;;;7390801;19;20589;-50
2024/04/16 06:39:25;;;;;;;0.10;0.10;;;;;;;;;;7391545;19;20459;-49
2024/04/16 06:41:51;;;;;;;0.10;0.10;;;;;;;;;;7392079;19;20122;-49
2024/04/16 06:44:17;;;;;;;0.10;0.10;;;;;;;;;;7393442;19;20130;-48
2024/04/16 06:46:43;;;;;;;0.10;0.10;;;;;;;;;;7393997;19;20221;-49
2024/04/16 06:49:09;;;;;;;0.10;0.10;;;;;;;;;;7393752;19;20143;-50
2024/04/16 06:51:35;;;;;;;0.10;0.10;;;;;;;;;;7393658;19;20600;-48
2024/04/16 06:54:02;;;;;;;0.10;0.10;;;;;;;;;;7393638;19;20142;-48
2024/04/16 06:56:28;;;;;;;0.10;0.10;;;;;;;;;;7394207;19;20630;-49
2024/04/16 06:58:54;;;;;;;0.10;0.10;;;;;;;;;;7393043;19;20278;-48
2024/04/16 07:01:25;;;;;;;0.10;0.10;;;;;;;;;;7393302;19;20162;-48
2024/04/16 07:03:51;;;;;;;0.10;0.10;;;;;;;;;;7392623;19;20146;-53
2024/04/16 07:06:17;;;;;;;0.10;0.10;;;;;;;;;;7392726;19;20134;-48
2024/04/16 07:08:43;;;;;;;0.10;0.10;;;;;;;;;;7392669;19;20137;-49
2024/04/16 07:11:09;;;;;;;0.10;0.10;;;;;;;;;;7392284;19;20146;-50
2024/04/16 07:13:35;;;;;;;0.03;0.03;;;;;;;;;;7391099;19;20141;-49
2024/04/16 07:16:02;;;;;;;0.10;0.10;;;;;;;;;;7393325;19;20141;-48
2024/04/16 07:18:28;;;;;;;0.10;0.10;;;;;;;;;;7389327;19;20227;-51
2024/04/16 07:20:54;;;;;;;0.10;0.10;;;;;;;;;;7392950;19;20162;-48
2024/04/16 07:23:20;;;;;;;0.10;0.10;;;;;;;;;;7391925;19;20211;-48
2024/04/16 07:25:47;;;;;;;0.10;0.10;;;;;;;;;;7393282;19;20606;-49
2024/04/16 07:28:13;;;;;;;0.10;0.10;;;;;;;;;;7391201;19;20167;-50
2024/04/16 07:30:40;;;;;;;0.10;0.10;;;;;;;;;;7397450;19;20637;-48
2024/04/16 07:33:07;;;;;;;0.10;0.10;;;;;;;;;;7401291;19;20207;-49
2024/04/16 07:35:33;;;;;;;0.10;0.10;;;;;;;;;;7398175;19;20166;-47
2024/04/16 07:38:00;;;;;;;0.10;0.10;;;;;;;;;;7399182;19;20145;-48
2024/04/16 07:40:26;;;;;;;0.10;0.10;;;;;;;;;;7400363;19;20126;-50
2024/04/16 07:42:52;;;;;;;0.10;0.10;;;;;;;;;;7399569;19;20604;-49
2024/04/16 07:45:18;;;;;;;0.20;0.20;;;;;;;;;;7399415;19;20130;-49
2024/04/16 07:47:44;;;;;;;0.10;0.10;;;;;;;;;;7400151;19;20126;-48
2024/04/16 07:50:10;;;;;;;0.13;0.13;;;;;;;;;;7398992;19;20536;-50
2024/04/16 07:52:36;;;;;;;0.10;0.10;;;;;;;;;;7399509;19;20142;-47
2024/04/16 07:55:02;;;;;;;0.10;0.10;;;;;;;;;;7397433;19;20137;-47
2024/04/16 07:57:29;;;;;;;0.10;0.10;;;;;;;;;;7398767;19;20666;-48
2024/04/16 07:59:55;;;;;;;0.10;0.10;;;;;;;;;;7400840;19;20138;-48
2024/04/16 08:02:20;;;;;;;0.10;0.10;;;;;;;;;;7399612;19;20479;-48
2024/04/16 08:04:47;;;;;;;0.10;0.10;;;;;;;;;;7399710;19;20172;-48
2024/04/16 08:07:13;;;;;;;0.10;0.10;;;;;;;;;;7398840;19;20201;-47
2024/04/16 08:09:40;;;;;;;0.10;0.10;;;;;;;;;;7399019;19;20152;-48
2024/04/16 08:12:06;;;;;;;0.10;0.10;;;;;;;;;;7399837;19;20137;-48
2024/04/16 08:14:32;;;;;;;0.07;0.07;;;;;;;;;;7397260;19;20134;-49
2024/04/16 08:16:58;;;;;;;0.00;0.00;;;;;;;;;;7399597;19;20126;-47
2024/04/16 08:19:24;;;;;;;0.10;0.10;;;;;;;;;;7399255;19;20189;-47
2024/04/16 08:21:51;;;;;;;0.10;0.10;;;;;;;;;;7399461;19;20138;-47
2024/04/16 08:24:17;;;;;;;0.10;0.10;;;;;;;;;;7397259;19;20185;-48
2024/04/16 08:26:43;;;;;;;0.10;0.10;;;;;;;;;;7397552;19;20551;-48
2024/04/16 08:29:09;;;;;;;0.10;0.10;;;;;;;;;;7398110;19;20158;-48
2024/04/16 08:31:35;;;;;;;0.10;0.10;;;;;;;;;;7400045;19;20193;-48
2024/04/16 08:34:02;;;;;;;0.10;0.10;;;;;;;;;;7399224;19;20142;-48
2024/04/16 08:36:30;;;;;;;0.10;0.10;;;;;;;;;;7398562;19;20142;-48
2024/04/16 08:38:56;;;;;;;0.10;0.10;;;;;;;;;;7398596;19;20146;-49
2024/04/16 08:41:22;;;;;;;0.10;0.10;;;;;;;;;;7396824;19;20668;-48
2024/04/16 08:43:48;;;;;;;0.10;0.10;;;;;;;;;;7398598;19;20130;-47
2024/04/16 08:46:15;;;;;;;0.00;0.00;;;;;;;;;;7399456;19;20138;-47
2024/04/16 08:48:42;;;;;;;0.10;0.10;;;;;;;;;;7398555;19;20508;-49
2024/04/16 08:51:09;;;;;;;0.00;0.00;;;;;;;;;;7398518;19;20658;-48
2024/04/16 08:53:36;;;;;;;0.10;0.10;;;;;;;;;;7398733;19;20153;-48
2024/04/16 08:56:03;;;;;;;0.10;0.10;;;;;;;;;;7398228;19;20146;-48
2024/04/16 08:58:29;;;;;;;0.00;0.00;;;;;;;;;;7396955;19;20138;-47
2024/04/16 09:00:56;;;;;;;0.10;0.10;;;;;;;;;;7398145;19;20158;-48
2024/04/16 09:03:22;;;;;;;0.10;0.10;;;;;;;;;;7398456;19;20138;-48
2024/04/16 09:05:48;;;;;;;0.10;0.10;;;;;;;;;;7398200;19;20122;-48
2024/04/16 09:08:14;;;;;;;0.10;0.10;;;;;;;;;;7398278;19;20134;-48
2024/04/16 09:10:43;;;;;;;0.10;0.10;;;;;;;;;;7398127;19;20138;-48
2024/04/16 09:13:12;;;;;;;0.10;0.10;;;;;;;;;;7397560;19;20145;-48
2024/04/16 09:15:40;;;;;;;0.10;0.10;;;;;;;;;;7395840;19;20142;-48
2024/04/16 09:18:06;;;;;;;0.20;0.20;;;;;;;;;;7397803;19;20130;-48
2024/04/16 09:20:32;;;;;;;0.10;0.10;;;;;;;;;;7397326;19;20134;-48
2024/04/16 09:22:58;;;;;;;0.10;0.10;;;;;;;;;;7396744;19;20189;-46
2024/04/16 09:25:25;;;;;;;0.10;0.10;;;;;;;;;;7397978;19;20138;-47
2024/04/16 09:27:54;;;;;;;0.10;0.10;;;;;;;;;;7397337;19;20141;-48
2024/04/16 09:30:24;;;;;;;0.10;0.10;;;;;;;;;;7397031;19;20197;-47
2024/04/16 09:32:59;;;;;;;0.10;0.10;;;;;;;;;;7396913;19;20137;-47
2024/04/16 09:35:29;;;;;;;0.20;0.20;;;;;;;;;;7395689;19;20133;-47
2024/04/16 09:38:03;;;;;;;0.10;0.10;;;;;;;;;;7397543;19;20550;-47
2024/04/16 09:40:29;;;;;;;0.10;0.10;;;;;;;;;;7396048;19;20142;-47
2024/04/16 09:42:57;;;;;;;0.10;0.10;;;;;;;;;;7397176;19;20154;-47
2024/04/16 09:45:23;;;;;;;0.10;0.10;;;;;;;;;;7395597;19;20153;-47
2024/04/16 09:47:50;;;;;;;0.10;0.10;;;;;;;;;;7396903;19;20150;-47
2024/04/16 09:50:18;;;;;;;0.10;0.10;;;;;;;;;;7397517;19;20146;-47
2024/04/16 09:52:44;;;;;;;0.10;0.10;;;;;;;;;;7395984;19;20608;-47
2024/04/16 09:55:11;;;;;;;0.10;0.10;;;;;;;;;;7395370;19;20130;-47
2024/04/16 09:57:38;;;;;;;0.10;0.10;;;;;;;;;;7396882;19;20600;-47
2024/04/16 10:00:05;;;;;;;0.10;0.10;;;;;;;;;;7393630;19;20170;-48
2024/04/16 10:02:31;;;;;;;0.10;0.10;;;;;;;;;;7395327;19;20175;-47
2024/04/16 10:04:59;;;;;;;0.10;0.10;;;;;;;;;;7396924;19;20138;-47
2024/04/16 10:07:25;;;;;;;0.20;0.20;;;;;;;;;;7396123;19;20185;-47
2024/04/16 10:09:51;;;;;;;0.10;0.10;;;;;;;;;;7395865;19;20227;-48
2024/04/16 10:12:17;;;;;;;0.10;0.10;;;;;;;;;;7395823;19;20618;-47
2024/04/16 10:14:45;;;;;;;0.10;0.10;;;;;;;;;;7394899;19;20141;-47
2024/04/16 10:17:14;;;;;;;0.10;0.10;;;;;;;;;;7395871;19;20145;-45
2024/04/16 10:19:40;;;;;;;0.10;0.10;;;;;;;;;;7395446;19;20217;-47
2024/04/16 10:22:13;;;;;;;0.10;0.10;;;;;;;;;;7394539;19;20150;-47
2024/04/16 10:24:39;;;;;;;0.20;0.20;;;;;;;;;;7393908;19;20138;-47
2024/04/16 10:27:09;;;;;;;0.10;0.10;;;;;;;;;;7395740;19;20138;-47
2024/04/16 10:29:37;;;;;;;0.10;0.10;;;;;;;;;;7394498;19;20157;-47
2024/04/16 10:32:04;;;;;;;0.10;0.10;;;;;;;;;;7394479;19;20137;-47
2024/04/16 10:34:30;;;;;;;0.10;0.10;;;;;;;;;;7394490;19;20138;-47
2024/04/16 10:36:56;;;;;;;0.10;0.10;;;;;;;;;;7395196;19;20138;-47
2024/04/16 10:39:32;;;;;;;0.10;0.10;;;;;;;;;;7395594;19;20146;-47
2024/04/16 10:41:59;;;;;;;0.10;0.10;;;;;;;;;;7394948;19;20129;-47
2024/04/16 10:44:25;;;;;;;0.10;0.10;;;;;;;;;;7394929;19;20151;-46
2024/04/16 10:46:53;;;;;;;0.10;0.10;;;;;;;;;;7394553;19;20513;-47
2024/04/16 10:49:23;;;;;;;0.10;0.10;;;;;;;;;;7392995;19;20157;-46
2024/04/16 10:51:52;;;;;;;0.10;0.10;;;;;;;;;;7393815;19;20134;-47
2024/04/16 10:54:18;;;;;;;0.20;0.20;;;;;;;;;;7392218;19;20169;-47
2024/04/16 10:56:45;;;;;;;0.10;0.10;;;;;;;;;;7393772;19;20151;-47
2024/04/16 10:59:12;;;;;;;0.10;0.10;;;;;;;;;;7394879;19;20137;-48
2024/04/16 11:01:39;;;;;;;0.10;0.10;;;;;;;;;;7394318;19;20134;-47
2024/04/16 11:04:08;;;;;;;0.10;0.10;;;;;;;;;;7392810;19;20436;-49
2024/04/16 11:06:34;;;;;;;0.13;0.13;;;;;;;;;;7394132;19;20126;-46
2024/04/16 11:09:02;;;;;;;0.10;0.10;;;;;;;;;;7391427;19;20621;-50
2024/04/16 11:11:28;;;;;;;0.10;0.10;;;;;;;;;;7393594;19;20148;-47
2024/04/16 11:13:54;;;;;;;0.10;0.10;;;;;;;;;;7393314;19;20486;-47
2024/04/16 11:16:21;;;;;;;0.10;0.10;;;;;;;;;;7394175;19;20570;-47
2024/04/16 11:18:47;;;;;;;0.10;0.10;;;;;;;;;;7393550;19;20130;-46
2024/04/16 11:21:13;;;;;;;0.10;0.10;;;;;;;;;;7392422;19;20166;-48
2024/04/16 11:23:39;;;;;;;0.10;0.10;;;;;;;;;;7392747;19;20192;-47
2024/04/16 11:26:05;;;;;;;0.20;0.20;;;;;;;;;;7393550;19;20166;-46
2024/04/16 11:28:32;;;;;;;0.10;0.10;;;;;;;;;;7393635;19;20460;-46
2024/04/16 11:30:59;;;;;;;0.10;0.10;;;;;;;;;;7394274;19;20142;-46
2024/04/16 11:33:27;;;;;;;0.10;0.10;;;;;;;;;;7392954;19;20137;-47
2024/04/16 11:35:53;;;;;;;0.10;0.10;;;;;;;;;;7391217;19;20138;-46
2024/04/16 11:38:20;;;;;;;0.20;0.20;;;;;;;;;;7391874;19;20138;-47
2024/04/16 11:40:46;;;;;;;0.10;0.10;;;;;;;;;;7392835;19;20134;-46
2024/04/16 11:43:15;;;;;;;0.20;0.20;;;;;;;;;;7393317;19;20146;-46
2024/04/16 11:45:42;;;;;;;0.10;0.10;;;;;;;;;;7391869;19;20246;-46
2024/04/16 11:48:08;;;;;;;0.00;0.00;;;;;;;;;;7393511;19;20130;-46
2024/04/16 11:50:34;;;;;;;0.10;0.10;;;;;;;;;;7393032;19;20138;-48
2024/04/16 11:53:00;;;;;;;0.10;0.10;;;;;;;;;;7393087;19;20545;-46
2024/04/16 11:55:26;;;;;;;0.10;0.10;;;;;;;;;;7389479;19;20600;-46
2024/04/16 11:57:52;;;;;;;0.10;0.10;;;;;;;;;;7391771;19;20149;-46
2024/04/16 12:00:18;;;;;;;0.10;0.10;;;;;;;;;;7392419;19;20134;-47
2024/04/16 12:02:44;;;;;;;0.10;0.10;;;;;;;;;;7390850;19;20161;-46
2024/04/16 12:05:10;;;;;;;0.10;0.10;;;;;;;;;;7392861;19;20134;-46
2024/04/16 12:07:37;;;;;;;0.20;0.20;;;;;;;;;;7392058;19;20136;-46
2024/04/16 12:10:03;;;;;;;0.10;0.10;;;;;;;;;;7392658;19;20138;-46
2024/04/16 12:12:29;;;;;;;0.10;0.10;;;;;;;;;;7392840;19;20230;-46
2024/04/16 12:14:55;;;;;;;0.10;0.10;;;;;;;;;;7391385;19;20149;-46
2024/04/16 12:17:21;;;;;;;0.20;0.20;;;;;;;;;;7398406;19;20185;-46
2024/04/16 12:19:48;;;;;;;0.10;0.10;;;;;;;;;;7399293;19;20134;-46
2024/04/16 12:22:15;;;;;;;0.17;0.17;;;;;;;;;;7400151;19;20145;-46
2024/04/16 12:24:41;;;;;;;0.20;0.20;;;;;;;;;;7396803;19;20235;-47
2024/04/16 12:27:07;;;;;;;0.20;0.20;;;;;;;;;;7400309;19;20134;-46
2024/04/16 12:29:33;;;;;;;0.17;0.17;;;;;;;;;;7398822;19;20134;-47
2024/04/16 12:31:59;;;;;;;0.20;0.20;;;;;;;;;;7398674;19;20126;-47
2024/04/16 12:34:25;;;;;;;0.20;0.20;;;;;;;;;;7398218;19;20134;-46
2024/04/16 12:36:51;;;;;;;0.10;0.10;;;;;;;;;;7398138;19;20573;-46
2024/04/16 12:39:17;;;;;;;0.20;0.20;;;;;;;;;;7399011;19;20149;-46
2024/04/16 12:41:43;;;;;;;0.10;0.10;;;;;;;;;;7398012;19;20496;-46
2024/04/16 12:44:09;;;;;;;0.20;0.20;;;;;;;;;;7398330;19;20612;-47
2024/04/16 12:46:35;;;;;;;0.10;0.10;;;;;;;;;;7397989;19;20205;-48
2024/04/16 12:49:01;;;;;;;0.10;0.10;;;;;;;;;;7399029;19;20201;-46
2024/04/16 12:51:27;;;;;;;0.13;0.13;;;;;;;;;;7399281;19;20674;-46
2024/04/16 12:53:53;;;;;;;0.10;0.10;;;;;;;;;;7398323;19;20185;-46
2024/04/16 12:56:19;;;;;;;0.20;0.20;;;;;;;;;;7398415;19;20138;-45
2024/04/16 12:58:45;;;;;;;0.10;0.10;;;;;;;;;;7397911;19;20270;-45
2024/04/16 13:01:11;;;;;;;0.20;0.20;;;;;;;;;;7398185;19;20630;-45
2024/04/16 13:03:37;;;;;;;0.20;0.20;;;;;;;;;;7397945;19;20146;-46
2024/04/16 13:06:03;;;;;;;0.20;0.20;;;;;;;;;;7398146;19;20142;-47
2024/04/16 13:08:29;;;;;;;0.20;0.20;;;;;;;;;;7397828;19;20164;-46
2024/04/16 13:10:55;;;;;;;0.10;0.10;;;;;;;;;;7398294;19;20138;-45
2024/04/16 13:13:21;;;;;;;0.20;0.20;;;;;;;;;;7397575;19;20142;-47
2024/04/16 13:15:47;;;;;;;0.20;0.20;;;;;;;;;;7396285;19;20130;-46
2024/04/16 13:18:13;;;;;;;0.10;0.10;;;;;;;;;;7398104;19;20130;-45
2024/04/16 13:20:39;;;;;;;0.20;0.20;;;;;;;;;;7397887;19;20609;-47
2024/04/16 13:23:05;;;;;;;0.20;0.20;;;;;;;;;;7396505;19;20185;-46
2024/04/16 13:25:32;;;;;;;0.30;0.30;;;;;;;;;;7396615;19;20517;-45
2024/04/16 13:27:58;;;;;;;0.20;0.20;;;;;;;;;;7396515;19;20159;-46
2024/04/16 13:30:24;;;;;;;0.20;0.20;;;;;;;;;;7397456;19;20145;-47
2024/04/16 13:32:55;;;;;;;0.20;0.20;;;;;;;;;;7397205;19;20222;-46
2024/04/16 13:35:21;;;;;;;0.10;0.10;;;;;;;;;;7396161;19;20138;-45
2024/04/16 13:37:47;;;;;;;0.17;0.17;;;;;;;;;;7396409;19;20126;-47
2024/04/16 13:40:13;;;;;;;0.20;0.20;;;;;;;;;;7396571;19;20149;-47
2024/04/16 13:42:39;;;;;;;0.20;0.20;;;;;;;;;;7397230;19;20257;-47
2024/04/16 13:45:06;;;;;;;0.20;0.20;;;;;;;;;;7396908;19;20137;-47
2024/04/16 13:47:32;;;;;;;0.10;0.10;;;;;;;;;;7394875;19;20149;-46
2024/04/16 13:49:58;;;;;;;0.20;0.20;;;;;;;;;;7396218;19;20161;-46
2024/04/16 13:52:24;;;;;;;0.20;0.20;;;;;;;;;;7396171;19;20265;-45
2024/04/16 13:54:50;;;;;;;0.30;0.30;;;;;;;;;;7395140;19;20542;-46
2024/04/16 13:57:16;;;;;;;0.17;0.17;;;;;;;;;;7394017;19;20166;-45
2024/04/16 13:59:42;;;;;;;0.10;0.10;;;;;;;;;;7395973;19;20449;-45
2024/04/16 14:02:08;;;;;;;0.20;0.20;;;;;;;;;;7395826;19;20201;-47
2024/04/16 14:04:35;;;;;;;0.20;0.20;;;;;;;;;;7396160;19;20246;-46
2024/04/16 14:07:01;;;;;;;0.20;0.20;;;;;;;;;;7395333;19;20129;-45
2024/04/16 14:09:27;;;;;;;0.13;0.13;;;;;;;;;;7395937;19;21000;-46
2024/04/16 14:11:53;;;;;;;0.20;0.20;;;;;;;;;;7395575;19;20130;-45
2024/04/16 14:14:19;;;;;;;0.20;0.20;;;;;;;;;;7394966;19;20593;-45
2024/04/16 14:16:45;;;;;;;0.20;0.20;;;;;;;;;;7395917;19;20568;-45
2024/04/16 14:19:13;;;;;;;0.20;0.20;;;;;;;;;;7395267;19;20128;-45
2024/04/16 14:21:39;;;;;;;0.30;0.30;;;;;;;;;;7396911;19;20138;-47
2024/04/16 14:24:11;;;;;;;0.30;0.30;;;;;;;;;;7391728;19;20201;-46
2024/04/16 14:26:37;;;;;;;0.30;0.30;;;;;;;;;;7395181;19;20229;-45
2024/04/16 14:29:06;;;;;;;0.20;0.20;;;;;;;;;;7394798;19;20166;-45
2024/04/16 14:31:32;;;;;;;0.20;0.20;;;;;;;;;;7395302;19;20130;-46
2024/04/16 14:33:58;;;;;;;0.20;0.20;;;;;;;;;;7394360;19;20130;-46
2024/04/16 14:36:25;;;;;;;0.20;0.20;;;;;;;;;;7395487;19;20162;-46
2024/04/16 14:38:51;;;;;;;0.30;0.30;;;;;;;;;;7392850;19;20134;-46